sensor_id;sensor_type;location;lat;lon;timestamp;pressure;altitude;pressure_sealevel;temperature;humidity
77321;BME280;66382;52.252;8.780;2023-04-02T00:01:18;100158.34;;;4.42;77.89
77321;BME280;66382;52.252;8.780;2023-04-02T00:04:02;100169.78;;;4.42;77.87
77321;BME280;66382;52.252;8.780;2023-04-02T00:06:34;100166.94;;;4.36;77.51
77321;BME280;66382;52.252;8.780;2023-04-02T00:09:02;100177.56;;;4.36;77.72
77321;BME280;66382;52.252;8.780;2023-04-02T00:11:30;100175.38;;;4.31;77.73
77321;BME280;66382;52.252;8.780;2023-04-02T00:13:59;100181.97;;;4.27;76.88
77321;BME280;66382;52.252;8.780;2023-04-02T00:16:26;100167.75;;;4.10;77.21
77321;BME280;66382;52.252;8.780;2023-04-02T00:18:54;100174.56;;;4.13;77.18
77321;BME280;66382;52.252;8.780;2023-04-02T00:21:23;100193.69;;;4.16;77.81
77321;BME280;66382;52.252;8.780;2023-04-02T00:23:53;100192.16;;;4.14;76.84
77321;BME280;66382;52.252;8.780;2023-04-02T00:26:28;100199.31;;;4.13;77.26
77321;BME280;66382;52.252;8.780;2023-04-02T00:28:54;100200.59;;;4.09;77.54
77321;BME280;66382;52.252;8.780;2023-04-02T00:31:19;100205.06;;;4.08;77.32
77321;BME280;66382;52.252;8.780;2023-04-02T00:33:47;100209.00;;;4.04;76.93
77321;BME280;66382;52.252;8.780;2023-04-02T00:36:13;100218.94;;;4.02;77.13
77321;BME280;66382;52.252;8.780;2023-04-02T00:38:39;100220.38;;;3.97;76.70
77321;BME280;66382;52.252;8.780;2023-04-02T00:41:13;100224.53;;;3.99;77.87
77321;BME280;66382;52.252;8.780;2023-04-02T00:43:43;100235.28;;;3.98;77.28
77321;BME280;66382;52.252;8.780;2023-04-02T00:46:13;100232.44;;;3.91;77.35
77321;BME280;66382;52.252;8.780;2023-04-02T00:48:44;100235.09;;;3.91;77.02
77321;BME280;66382;52.252;8.780;2023-04-02T00:51:18;100239.72;;;3.89;76.74
77321;BME280;66382;52.252;8.780;2023-04-02T00:53:47;100247.28;;;3.84;77.13
77321;BME280;66382;52.252;8.780;2023-04-02T00:56:19;100245.09;;;3.79;77.34
77321;BME280;66382;52.252;8.780;2023-04-02T00:58:51;100236.19;;;3.71;77.37
77321;BME280;66382;52.252;8.780;2023-04-02T01:01:19;100254.19;;;3.77;77.09
77321;BME280;66382;52.252;8.780;2023-04-02T01:03:54;100251.66;;;3.75;76.99
77321;BME280;66382;52.252;8.780;2023-04-02T01:06:20;100259.84;;;3.82;76.68
77321;BME280;66382;52.252;8.780;2023-04-02T01:08:54;100264.78;;;3.77;76.35
77321;BME280;66382;52.252;8.780;2023-04-02T01:11:35;100260.75;;;3.73;77.08
77321;BME280;66382;52.252;8.780;2023-04-02T01:14:11;100277.09;;;3.68;76.50
77321;BME280;66382;52.252;8.780;2023-04-02T01:16:49;100265.84;;;3.66;77.04
77321;BME280;66382;52.252;8.780;2023-04-02T01:19:40;100274.91;;;3.63;76.54
77321;BME280;66382;52.252;8.780;2023-04-02T01:22:20;100280.88;;;3.65;77.00
77321;BME280;66382;52.252;8.780;2023-04-02T01:24:47;100282.03;;;3.63;76.49
77321;BME280;66382;52.252;8.780;2023-04-02T01:27:17;100293.69;;;3.70;76.32
77321;BME280;66382;52.252;8.780;2023-04-02T01:29:50;100289.22;;;3.71;76.12
77321;BME280;66382;52.252;8.780;2023-04-02T01:32:19;100301.34;;;3.73;76.48
77321;BME280;66382;52.252;8.780;2023-04-02T01:34:47;100303.16;;;3.73;76.65
77321;BME280;66382;52.252;8.780;2023-04-02T01:37:22;100297.88;;;3.73;76.13
77321;BME280;66382;52.252;8.780;2023-04-02T01:42:50;100321.91;;;3.71;76.64
77321;BME280;66382;52.252;8.780;2023-04-02T01:45:21;100321.72;;;3.73;76.68
77321;BME280;66382;52.252;8.780;2023-04-02T01:47:48;100325.22;;;3.73;77.22
77321;BME280;66382;52.252;8.780;2023-04-02T01:50:23;100341.50;;;3.78;76.96
77321;BME280;66382;52.252;8.780;2023-04-02T01:52:52;100335.53;;;3.76;76.75
77321;BME280;66382;52.252;8.780;2023-04-02T01:55:27;100339.72;;;3.79;76.13
77321;BME280;66382;52.252;8.780;2023-04-02T01:57:54;100353.50;;;3.82;76.49
77321;BME280;66382;52.252;8.780;2023-04-02T02:00:22;100352.09;;;3.78;75.90
77321;BME280;66382;52.252;8.780;2023-04-02T02:02:50;100363.41;;;3.80;76.14
77321;BME280;66382;52.252;8.780;2023-04-02T02:05:18;100363.03;;;3.75;75.91
77321;BME280;66382;52.252;8.780;2023-04-02T02:07:45;100371.72;;;3.67;74.95
77321;BME280;66382;52.252;8.780;2023-04-02T02:10:13;100378.00;;;3.66;75.51
77321;BME280;66382;52.252;8.780;2023-04-02T02:12:40;100379.41;;;3.61;75.50
77321;BME280;66382;52.252;8.780;2023-04-02T02:15:13;100380.41;;;3.60;76.29
77321;BME280;66382;52.252;8.780;2023-04-02T02:17:41;100382.53;;;3.56;76.33
77321;BME280;66382;52.252;8.780;2023-04-02T02:20:08;100392.13;;;3.57;75.87
77321;BME280;66382;52.252;8.780;2023-04-02T02:22:36;100396.75;;;3.55;76.21
77321;BME280;66382;52.252;8.780;2023-04-02T02:25:05;100381.97;;;3.53;75.33
77321;BME280;66382;52.252;8.780;2023-04-02T02:27:58;100399.56;;;3.54;76.16
77321;BME280;66382;52.252;8.780;2023-04-02T02:30:29;100408.63;;;3.51;75.43
77321;BME280;66382;52.252;8.780;2023-04-02T02:33:02;100415.31;;;3.45;75.21
77321;BME280;66382;52.252;8.780;2023-04-02T02:35:35;100422.31;;;3.47;75.33
77321;BME280;66382;52.252;8.780;2023-04-02T02:40:49;100430.13;;;3.38;74.96
77321;BME280;66382;52.252;8.780;2023-04-02T02:43:18;100442.72;;;3.36;74.95
77321;BME280;66382;52.252;8.780;2023-04-02T02:45:44;100439.63;;;3.31;75.64
77321;BME280;66382;52.252;8.780;2023-04-02T02:48:15;100448.28;;;3.33;75.53
77321;BME280;66382;52.252;8.780;2023-04-02T02:50:43;100459.28;;;3.29;75.45
77321;BME280;66382;52.252;8.780;2023-04-02T02:53:16;100470.75;;;3.29;75.47
77321;BME280;66382;52.252;8.780;2023-04-02T02:55:42;100463.06;;;3.26;75.43
77321;BME280;66382;52.252;8.780;2023-04-02T02:58:10;100468.94;;;3.30;75.79
77321;BME280;66382;52.252;8.780;2023-04-02T03:00:38;100472.00;;;3.35;76.23
77321;BME280;66382;52.252;8.780;2023-04-02T03:03:07;100488.16;;;3.41;75.41
77321;BME280;66382;52.252;8.780;2023-04-02T03:05:36;100474.50;;;3.36;75.56
77321;BME280;66382;52.252;8.780;2023-04-02T03:08:06;100490.84;;;3.32;75.01
77321;BME280;66382;52.252;8.780;2023-04-02T03:10:43;100483.31;;;3.27;75.82
77321;BME280;66382;52.252;8.780;2023-04-02T03:13:17;100486.09;;;3.26;75.71
77321;BME280;66382;52.252;8.780;2023-04-02T03:15:52;100494.03;;;3.16;75.58
77321;BME280;66382;52.252;8.780;2023-04-02T03:18:31;100496.41;;;3.19;75.19
77321;BME280;66382;52.252;8.780;2023-04-02T03:21:09;100506.31;;;3.17;74.59
77321;BME280;66382;52.252;8.780;2023-04-02T03:23:41;100514.53;;;3.14;75.38
77321;BME280;66382;52.252;8.780;2023-04-02T03:26:13;100515.66;;;3.11;75.17
77321;BME280;66382;52.252;8.780;2023-04-02T03:28:42;100528.06;;;3.11;75.57
77321;BME280;66382;52.252;8.780;2023-04-02T03:31:13;100533.66;;;3.08;75.25
77321;BME280;66382;52.252;8.780;2023-04-02T03:33:45;100537.53;;;3.04;74.86
77321;BME280;66382;52.252;8.780;2023-04-02T03:36:18;100533.22;;;3.03;75.33
77321;BME280;66382;52.252;8.780;2023-04-02T03:38:48;100546.06;;;2.97;74.89
77321;BME280;66382;52.252;8.780;2023-04-02T03:41:18;100560.13;;;2.98;75.34
77321;BME280;66382;52.252;8.780;2023-04-02T03:43:46;100553.28;;;2.95;75.65
77321;BME280;66382;52.252;8.780;2023-04-02T03:46:22;100563.75;;;2.97;75.44
77321;BME280;66382;52.252;8.780;2023-04-02T03:48:51;100558.88;;;2.92;75.08
77321;BME280;66382;52.252;8.780;2023-04-02T03:51:24;100556.63;;;2.88;74.98
77321;BME280;66382;52.252;8.780;2023-04-02T03:53:52;100577.13;;;2.95;75.05
77321;BME280;66382;52.252;8.780;2023-04-02T03:56:24;100575.31;;;2.96;74.55
77321;BME280;66382;52.252;8.780;2023-04-02T03:58:59;100574.19;;;2.98;75.32
77321;BME280;66382;52.252;8.780;2023-04-02T04:01:32;100586.31;;;3.01;75.37
77321;BME280;66382;52.252;8.780;2023-04-02T04:04:05;100616.88;;;3.05;75.20
77321;BME280;66382;52.252;8.780;2023-04-02T04:06:35;100593.03;;;3.05;74.86
77321;BME280;66382;52.252;8.780;2023-04-02T04:09:07;100601.53;;;3.09;75.24
77321;BME280;66382;52.252;8.780;2023-04-02T04:11:36;100599.03;;;3.17;75.07
77321;BME280;66382;52.252;8.780;2023-04-02T04:14:07;100623.00;;;3.15;74.39
77321;BME280;66382;52.252;8.780;2023-04-02T04:16:47;100626.34;;;3.08;75.04
77321;BME280;66382;52.252;8.780;2023-04-02T04:19:16;100632.34;;;3.10;74.44
77321;BME280;66382;52.252;8.780;2023-04-02T04:21:46;100636.81;;;3.09;74.81
77321;BME280;66382;52.252;8.780;2023-04-02T04:24:17;100636.13;;;3.07;74.97
77321;BME280;66382;52.252;8.780;2023-04-02T04:26:45;100640.44;;;3.08;74.32
77321;BME280;66382;52.252;8.780;2023-04-02T04:29:29;100646.41;;;3.00;74.54
77321;BME280;66382;52.252;8.780;2023-04-02T04:32:09;100657.84;;;3.11;74.82
77321;BME280;66382;52.252;8.780;2023-04-02T04:34:41;100659.28;;;3.15;74.60
77321;BME280;66382;52.252;8.780;2023-04-02T04:37:17;100667.06;;;3.16;75.04
77321;BME280;66382;52.252;8.780;2023-04-02T04:39:46;100659.69;;;3.20;73.47
77321;BME280;66382;52.252;8.780;2023-04-02T04:42:18;100674.34;;;3.14;74.44
77321;BME280;66382;52.252;8.780;2023-04-02T04:44:49;100674.47;;;3.13;74.15
77321;BME280;66382;52.252;8.780;2023-04-02T04:47:19;100683.22;;;3.13;74.10
77321;BME280;66382;52.252;8.780;2023-04-02T04:49:52;100688.81;;;3.10;74.14
77321;BME280;66382;52.252;8.780;2023-04-02T04:52:23;100699.53;;;3.09;74.21
77321;BME280;66382;52.252;8.780;2023-04-02T04:54:50;100702.19;;;3.09;73.80
77321;BME280;66382;52.252;8.780;2023-04-02T04:57:27;100707.75;;;3.06;74.01
77321;BME280;66382;52.252;8.780;2023-04-02T04:59:58;100721.72;;;3.08;73.83
77321;BME280;66382;52.252;8.780;2023-04-02T05:02:30;100717.63;;;3.04;74.58
77321;BME280;66382;52.252;8.780;2023-04-02T05:04:59;100727.44;;;3.13;74.30
77321;BME280;66382;52.252;8.780;2023-04-02T05:07:30;100736.81;;;3.17;74.36
77321;BME280;66382;52.252;8.780;2023-04-02T05:10:00;100743.06;;;3.16;73.21
77321;BME280;66382;52.252;8.780;2023-04-02T05:12:33;100752.69;;;3.17;74.40
77321;BME280;66382;52.252;8.780;2023-04-02T05:15:05;100749.19;;;3.16;73.20
77321;BME280;66382;52.252;8.780;2023-04-02T05:17:44;100755.59;;;3.14;73.89
77321;BME280;66382;52.252;8.780;2023-04-02T05:20:15;100756.56;;;3.13;73.40
77321;BME280;66382;52.252;8.780;2023-04-02T05:22:47;100762.59;;;3.15;73.73
77321;BME280;66382;52.252;8.780;2023-04-02T05:25:19;100775.81;;;3.15;73.69
77321;BME280;66382;52.252;8.780;2023-04-02T05:27:50;100779.44;;;3.14;73.34
77321;BME280;66382;52.252;8.780;2023-04-02T05:30:40;100793.53;;;3.14;74.21
77321;BME280;66382;52.252;8.780;2023-04-02T05:33:18;100793.00;;;3.20;73.87
77321;BME280;66382;52.252;8.780;2023-04-02T05:35:49;100802.63;;;3.21;73.19
77321;BME280;66382;52.252;8.780;2023-04-02T05:38:20;100801.78;;;3.21;72.86
77321;BME280;66382;52.252;8.780;2023-04-02T05:40:48;100803.72;;;3.19;73.28
77321;BME280;66382;52.252;8.780;2023-04-02T05:43:17;100803.59;;;3.20;72.99
77321;BME280;66382;52.252;8.780;2023-04-02T05:45:51;100811.84;;;3.27;72.55
77321;BME280;66382;52.252;8.780;2023-04-02T05:48:19;100812.56;;;3.29;73.45
77321;BME280;66382;52.252;8.780;2023-04-02T05:50:48;100817.19;;;3.37;72.54
77321;BME280;66382;52.252;8.780;2023-04-02T05:53:20;100818.53;;;3.31;73.05
77321;BME280;66382;52.252;8.780;2023-04-02T05:55:53;100797.84;;;3.15;73.75
77321;BME280;66382;52.252;8.780;2023-04-02T05:58:25;100836.25;;;3.31;73.40
77321;BME280;66382;52.252;8.780;2023-04-02T06:01:17;100835.03;;;3.35;73.14
77321;BME280;66382;52.252;8.780;2023-04-02T06:03:50;100847.06;;;3.39;72.79
77321;BME280;66382;52.252;8.780;2023-04-02T06:06:25;100849.00;;;3.37;72.38
77321;BME280;66382;52.252;8.780;2023-04-02T06:08:57;100849.66;;;3.29;71.56
77321;BME280;66382;52.252;8.780;2023-04-02T06:11:29;100853.41;;;3.27;72.69
77321;BME280;66382;52.252;8.780;2023-04-02T06:13:55;100864.97;;;3.26;72.31
77321;BME280;66382;52.252;8.780;2023-04-02T06:16:27;100863.41;;;3.23;72.46
77321;BME280;66382;52.252;8.780;2023-04-02T06:18:54;100867.88;;;3.22;71.01
77321;BME280;66382;52.252;8.780;2023-04-02T06:21:20;100877.38;;;3.25;72.60
77321;BME280;66382;52.252;8.780;2023-04-02T06:23:51;100883.13;;;3.30;72.34
77321;BME280;66382;52.252;8.780;2023-04-02T06:26:22;100900.56;;;3.33;71.70
77321;BME280;66382;52.252;8.780;2023-04-02T06:28:52;100905.03;;;3.32;72.62
77321;BME280;66382;52.252;8.780;2023-04-02T06:31:26;100915.38;;;3.35;71.75
77321;BME280;66382;52.252;8.780;2023-04-02T06:33:52;100914.00;;;3.41;71.77
77321;BME280;66382;52.252;8.780;2023-04-02T06:36:18;100923.25;;;3.47;71.40
77321;BME280;66382;52.252;8.780;2023-04-02T06:38:46;100927.50;;;3.59;71.90
77321;BME280;66382;52.252;8.780;2023-04-02T06:41:16;100932.91;;;3.57;71.92
77321;BME280;66382;52.252;8.780;2023-04-02T06:43:47;100936.66;;;3.55;71.62
77321;BME280;66382;52.252;8.780;2023-04-02T06:46:19;100941.69;;;3.58;71.55
77321;BME280;66382;52.252;8.780;2023-04-02T06:48:47;100943.41;;;3.59;72.93
77321;BME280;66382;52.252;8.780;2023-04-02T06:51:17;100951.59;;;3.56;67.81
77321;BME280;66382;52.252;8.780;2023-04-02T06:53:46;100952.00;;;3.51;71.18
77321;BME280;66382;52.252;8.780;2023-04-02T06:56:21;100959.25;;;3.49;71.37
77321;BME280;66382;52.252;8.780;2023-04-02T06:58:52;100960.09;;;3.50;70.99
77321;BME280;66382;52.252;8.780;2023-04-02T07:01:21;100969.72;;;3.51;69.98
77321;BME280;66382;52.252;8.780;2023-04-02T07:03:48;100974.88;;;3.52;69.41
77321;BME280;66382;52.252;8.780;2023-04-02T07:06:15;100981.63;;;3.56;69.76
77321;BME280;66382;52.252;8.780;2023-04-02T07:08:41;100983.84;;;3.61;70.17
77321;BME280;66382;52.252;8.780;2023-04-02T07:11:08;100975.41;;;3.46;69.81
77321;BME280;66382;52.252;8.780;2023-04-02T07:13:34;100993.72;;;3.49;69.75
77321;BME280;66382;52.252;8.780;2023-04-02T07:16:01;101007.47;;;3.43;70.00
77321;BME280;66382;52.252;8.780;2023-04-02T07:18:29;100986.09;;;3.35;69.65
77321;BME280;66382;52.252;8.780;2023-04-02T07:20:55;101006.06;;;3.39;71.27
77321;BME280;66382;52.252;8.780;2023-04-02T07:23:21;101009.03;;;3.45;71.59
77321;BME280;66382;52.252;8.780;2023-04-02T07:25:47;101015.63;;;3.51;70.82
77321;BME280;66382;52.252;8.780;2023-04-02T07:28:13;101020.66;;;3.54;71.96
77321;BME280;66382;52.252;8.780;2023-04-02T07:30:39;101024.59;;;3.60;71.79
77321;BME280;66382;52.252;8.780;2023-04-02T07:33:06;101032.63;;;3.70;71.20
77321;BME280;66382;52.252;8.780;2023-04-02T07:35:32;101039.06;;;3.77;70.01
77321;BME280;66382;52.252;8.780;2023-04-02T07:37:58;101039.19;;;3.75;70.87
77321;BME280;66382;52.252;8.780;2023-04-02T07:40:24;101049.28;;;3.81;71.66
77321;BME280;66382;52.252;8.780;2023-04-02T07:42:49;101054.22;;;3.86;69.78
77321;BME280;66382;52.252;8.780;2023-04-02T07:45:15;101056.16;;;3.84;69.67
77321;BME280;66382;52.252;8.780;2023-04-02T07:47:41;101068.56;;;3.83;70.54
77321;BME280;66382;52.252;8.780;2023-04-02T07:50:09;101065.06;;;3.83;70.00
77321;BME280;66382;52.252;8.780;2023-04-02T07:52:38;101071.47;;;3.80;68.83
77321;BME280;66382;52.252;8.780;2023-04-02T07:55:04;101074.72;;;3.84;70.28
77321;BME280;66382;52.252;8.780;2023-04-02T07:57:30;101072.34;;;3.81;70.26
77321;BME280;66382;52.252;8.780;2023-04-02T07:59:56;101064.63;;;3.78;70.29
77321;BME280;66382;52.252;8.780;2023-04-02T08:02:22;101084.13;;;3.98;71.03
77321;BME280;66382;52.252;8.780;2023-04-02T08:04:49;101096.34;;;4.10;71.41
77321;BME280;66382;52.252;8.780;2023-04-02T08:07:16;101111.16;;;4.13;69.88
77321;BME280;66382;52.252;8.780;2023-04-02T08:09:42;101099.97;;;4.09;69.21
77321;BME280;66382;52.252;8.780;2023-04-02T08:12:08;101106.97;;;4.10;69.25
77321;BME280;66382;52.252;8.780;2023-04-02T08:14:36;101101.66;;;4.10;70.86
77321;BME280;66382;52.252;8.780;2023-04-02T08:17:02;101115.63;;;4.12;69.87
77321;BME280;66382;52.252;8.780;2023-04-02T08:19:28;101126.41;;;4.11;70.34
77321;BME280;66382;52.252;8.780;2023-04-02T08:21:54;101120.81;;;4.14;70.13
77321;BME280;66382;52.252;8.780;2023-04-02T08:24:21;101114.81;;;4.12;69.00
77321;BME280;66382;52.252;8.780;2023-04-02T08:26:48;101142.53;;;4.28;70.21
77321;BME280;66382;52.252;8.780;2023-04-02T08:29:14;101121.16;;;4.30;70.61
77321;BME280;66382;52.252;8.780;2023-04-02T08:31:40;101138.13;;;4.39;69.65
77321;BME280;66382;52.252;8.780;2023-04-02T08:34:06;101141.22;;;4.44;69.16
77321;BME280;66382;52.252;8.780;2023-04-02T08:36:34;101144.59;;;4.46;68.87
77321;BME280;66382;52.252;8.780;2023-04-02T08:39:01;101158.25;;;4.41;67.64
77321;BME280;66382;52.252;8.780;2023-04-02T08:41:28;101141.75;;;4.38;66.35
77321;BME280;66382;52.252;8.780;2023-04-02T08:44:07;101154.75;;;4.41;67.86
77321;BME280;66382;52.252;8.780;2023-04-02T08:46:38;101157.84;;;4.46;70.32
77321;BME280;66382;52.252;8.780;2023-04-02T08:49:11;101160.56;;;4.56;70.13
77321;BME280;66382;52.252;8.780;2023-04-02T08:51:39;101155.53;;;4.62;66.72
77321;BME280;66382;52.252;8.780;2023-04-02T08:54:13;101146.56;;;4.53;69.22
77321;BME280;66382;52.252;8.780;2023-04-02T08:56:48;101178.09;;;4.68;68.74
77321;BME280;66382;52.252;8.780;2023-04-02T08:59:21;101192.19;;;4.68;68.76
77321;BME280;66382;52.252;8.780;2023-04-02T09:01:55;101196.91;;;4.65;70.21
77321;BME280;66382;52.252;8.780;2023-04-02T09:04:24;101201.41;;;4.64;68.47
77321;BME280;66382;52.252;8.780;2023-04-02T09:06:53;101209.38;;;4.64;65.57
77321;BME280;66382;52.252;8.780;2023-04-02T09:09:21;101209.81;;;4.69;69.31
77321;BME280;66382;52.252;8.780;2023-04-02T09:11:51;101182.25;;;4.61;68.24
77321;BME280;66382;52.252;8.780;2023-04-02T09:14:20;101208.00;;;4.70;67.79
77321;BME280;66382;52.252;8.780;2023-04-02T09:16:49;101210.25;;;4.74;68.45
77321;BME280;66382;52.252;8.780;2023-04-02T09:19:19;101214.59;;;4.76;68.79
77321;BME280;66382;52.252;8.780;2023-04-02T09:21:54;101229.28;;;4.80;66.94
77321;BME280;66382;52.252;8.780;2023-04-02T09:24:21;101222.03;;;4.82;68.07
77321;BME280;66382;52.252;8.780;2023-04-02T09:26:48;101230.44;;;4.87;66.98
77321;BME280;66382;52.252;8.780;2023-04-02T09:29:38;101234.00;;;4.97;69.30
77321;BME280;66382;52.252;8.780;2023-04-02T09:32:26;101243.50;;;5.00;68.65
77321;BME280;66382;52.252;8.780;2023-04-02T09:35:10;101232.03;;;4.99;66.68
77321;BME280;66382;52.252;8.780;2023-04-02T09:37:36;101246.41;;;4.96;67.19
77321;BME280;66382;52.252;8.780;2023-04-02T09:40:24;101244.78;;;5.05;69.16
77321;BME280;66382;52.252;8.780;2023-04-02T09:43:04;101250.81;;;5.07;68.09
77321;BME280;66382;52.252;8.780;2023-04-02T09:45:34;101248.16;;;5.07;66.77
77321;BME280;66382;52.252;8.780;2023-04-02T09:48:00;101247.44;;;5.05;68.24
77321;BME280;66382;52.252;8.780;2023-04-02T09:50:28;101255.41;;;5.05;65.29
77321;BME280;66382;52.252;8.780;2023-04-02T09:52:54;101262.84;;;5.11;67.65
77321;BME280;66382;52.252;8.780;2023-04-02T09:55:23;101264.81;;;5.19;68.17
77321;BME280;66382;52.252;8.780;2023-04-02T09:57:50;101264.19;;;5.27;66.82
77321;BME280;66382;52.252;8.780;2023-04-02T10:00:19;101267.38;;;5.30;67.19
77321;BME280;66382;52.252;8.780;2023-04-02T10:02:46;101274.97;;;5.35;68.27
77321;BME280;66382;52.252;8.780;2023-04-02T10:05:23;101279.88;;;5.39;67.62
77321;BME280;66382;52.252;8.780;2023-04-02T10:07:50;101284.91;;;5.43;68.37
77321;BME280;66382;52.252;8.780;2023-04-02T10:10:21;101285.44;;;5.36;68.09
77321;BME280;66382;52.252;8.780;2023-04-02T10:12:52;101286.75;;;5.42;67.83
77321;BME280;66382;52.252;8.780;2023-04-02T10:15:24;101309.53;;;5.35;68.03
77321;BME280;66382;52.252;8.780;2023-04-02T10:17:58;101303.19;;;5.26;67.78
77321;BME280;66382;52.252;8.780;2023-04-02T10:20:28;101309.63;;;5.24;67.12
77321;BME280;66382;52.252;8.780;2023-04-02T10:22:55;101308.81;;;5.33;68.18
77321;BME280;66382;52.252;8.780;2023-04-02T10:25:24;101314.59;;;5.48;67.61
77321;BME280;66382;52.252;8.780;2023-04-02T10:27:58;101318.97;;;5.58;68.13
77321;BME280;66382;52.252;8.780;2023-04-02T10:30:32;101319.16;;;5.67;68.41
77321;BME280;66382;52.252;8.780;2023-04-02T10:33:10;101326.56;;;5.73;65.22
77321;BME280;66382;52.252;8.780;2023-04-02T10:35:42;101325.03;;;5.70;66.78
77321;BME280;66382;52.252;8.780;2023-04-02T10:38:23;101319.84;;;5.69;65.72
77321;BME280;66382;52.252;8.780;2023-04-02T10:40:57;101332.16;;;5.70;68.04
77321;BME280;66382;52.252;8.780;2023-04-02T10:43:45;101337.09;;;5.74;68.53
77321;BME280;66382;52.252;8.780;2023-04-02T10:46:19;101337.91;;;5.75;66.99
77321;BME280;66382;52.252;8.780;2023-04-02T10:48:53;101342.00;;;5.79;67.27
77321;BME280;66382;52.252;8.780;2023-04-02T10:51:28;101322.38;;;5.70;66.64
77321;BME280;66382;52.252;8.780;2023-04-02T10:54:02;101338.06;;;5.83;68.58
77321;BME280;66382;52.252;8.780;2023-04-02T10:56:31;101360.13;;;5.95;67.28
77321;BME280;66382;52.252;8.780;2023-04-02T10:59:01;101355.78;;;5.94;65.63
77321;BME280;66382;52.252;8.780;2023-04-02T11:01:30;101369.53;;;5.99;66.67
77321;BME280;66382;52.252;8.780;2023-04-02T11:03:59;101370.22;;;6.01;66.26
77321;BME280;66382;52.252;8.780;2023-04-02T11:06:30;101373.88;;;6.10;66.40
77321;BME280;66382;52.252;8.780;2023-04-02T11:09:00;101379.91;;;6.12;64.41
77321;BME280;66382;52.252;8.780;2023-04-02T11:11:30;101380.75;;;6.12;66.18
77321;BME280;66382;52.252;8.780;2023-04-02T11:14:00;101382.16;;;6.16;66.53
77321;BME280;66382;52.252;8.780;2023-04-02T11:16:29;101398.41;;;6.13;65.33
77321;BME280;66382;52.252;8.780;2023-04-02T11:19:15;101391.53;;;6.11;66.99
77321;BME280;66382;52.252;8.780;2023-04-02T11:21:46;101394.63;;;6.16;66.31
77321;BME280;66382;52.252;8.780;2023-04-02T11:24:24;101404.84;;;6.20;66.88
77321;BME280;66382;52.252;8.780;2023-04-02T11:26:51;101399.94;;;6.25;65.31
77321;BME280;66382;52.252;8.780;2023-04-02T11:29:20;101403.75;;;6.33;65.58
77321;BME280;66382;52.252;8.780;2023-04-02T11:31:50;101404.44;;;6.35;66.06
77321;BME280;66382;52.252;8.780;2023-04-02T11:37:30;101406.56;;;6.31;66.33
77321;BME280;66382;52.252;8.780;2023-04-02T11:39:57;101411.31;;;6.37;65.19
77321;BME280;66382;52.252;8.780;2023-04-02T11:42:26;101408.38;;;6.50;65.92
77321;BME280;66382;52.252;8.780;2023-04-02T11:44:53;101419.75;;;6.72;66.26
77321;BME280;66382;52.252;8.780;2023-04-02T11:47:22;101404.47;;;6.74;62.86
77321;BME280;66382;52.252;8.780;2023-04-02T11:49:59;101419.03;;;6.79;66.02
77321;BME280;66382;52.252;8.780;2023-04-02T11:52:35;101418.63;;;6.84;65.93
77321;BME280;66382;52.252;8.780;2023-04-02T11:55:30;101422.41;;;7.01;67.07
77321;BME280;66382;52.252;8.780;2023-04-02T11:58:07;101417.88;;;7.11;66.11
77321;BME280;66382;52.252;8.780;2023-04-02T12:00:56;101409.56;;;7.24;63.89
77321;BME280;66382;52.252;8.780;2023-04-02T12:03:44;101422.03;;;7.33;66.63
77321;BME280;66382;52.252;8.780;2023-04-02T12:06:20;101417.41;;;7.35;65.11
77321;BME280;66382;52.252;8.780;2023-04-02T12:08:59;101418.22;;;7.45;64.10
77321;BME280;66382;52.252;8.780;2023-04-02T12:11:32;101420.78;;;7.37;63.21
77321;BME280;66382;52.252;8.780;2023-04-02T12:14:00;101423.75;;;7.24;63.90
77321;BME280;66382;52.252;8.780;2023-04-02T12:16:26;101428.25;;;7.14;63.50
77321;BME280;66382;52.252;8.780;2023-04-02T12:18:53;101432.47;;;7.17;64.16
77321;BME280;66382;52.252;8.780;2023-04-02T12:21:21;101439.50;;;7.18;63.63
77321;BME280;66382;52.252;8.780;2023-04-02T12:23:51;101439.59;;;7.26;63.58
77321;BME280;66382;52.252;8.780;2023-04-02T12:26:28;101448.00;;;7.41;65.09
77321;BME280;66382;52.252;8.780;2023-04-02T12:28:54;101455.53;;;7.55;64.68
77321;BME280;66382;52.252;8.780;2023-04-02T12:31:22;101443.34;;;7.52;64.40
77321;BME280;66382;52.252;8.780;2023-04-02T12:33:51;101458.75;;;7.59;63.21
77321;BME280;66382;52.252;8.780;2023-04-02T12:36:19;101457.81;;;7.50;63.26
77321;BME280;66382;52.252;8.780;2023-04-02T12:38:48;101461.19;;;7.42;63.75
77321;BME280;66382;52.252;8.780;2023-04-02T12:41:21;101462.88;;;7.43;63.19
77321;BME280;66382;52.252;8.780;2023-04-02T12:43:55;101457.66;;;7.42;62.62
77321;BME280;66382;52.252;8.780;2023-04-02T12:46:21;101465.25;;;7.37;60.98
77321;BME280;66382;52.252;8.780;2023-04-02T12:48:47;101461.22;;;7.32;62.19
77321;BME280;66382;52.252;8.780;2023-04-02T12:51:13;101459.41;;;7.23;62.82
77321;BME280;66382;52.252;8.780;2023-04-02T12:53:40;101468.66;;;7.19;63.08
77321;BME280;66382;52.252;8.780;2023-04-02T12:56:07;101472.06;;;7.11;62.55
77321;BME280;66382;52.252;8.780;2023-04-02T12:58:42;101471.63;;;7.16;64.83
77321;BME280;66382;52.252;8.780;2023-04-02T13:01:13;101467.13;;;7.26;64.97
77321;BME280;66382;52.252;8.780;2023-04-02T13:03:39;101461.53;;;7.29;64.70
77321;BME280;66382;52.252;8.780;2023-04-02T13:06:19;101460.94;;;7.36;64.46
77321;BME280;66382;52.252;8.780;2023-04-02T13:08:47;101474.69;;;7.41;64.19
77321;BME280;66382;52.252;8.780;2023-04-02T13:11:13;101473.41;;;7.45;63.59
77321;BME280;66382;52.252;8.780;2023-04-02T13:13:39;101466.25;;;7.45;63.30
77321;BME280;66382;52.252;8.780;2023-04-02T13:16:23;101471.84;;;7.52;63.90
77321;BME280;66382;52.252;8.780;2023-04-02T13:18:50;101464.25;;;7.57;59.06
77321;BME280;66382;52.252;8.780;2023-04-02T13:21:23;101462.72;;;7.54;63.15
77321;BME280;66382;52.252;8.780;2023-04-02T13:23:51;101466.63;;;7.60;64.43
77321;BME280;66382;52.252;8.780;2023-04-02T13:26:19;101471.66;;;7.63;63.50
77321;BME280;66382;52.252;8.780;2023-04-02T13:28:58;101468.16;;;7.63;62.97